Terminal Aerodrome Forecast
Issued by NWS Twin Cities, MN

Home | Current Version | Previous Version | Graphics & Text | Print | Product List | Glossary Off
Versions: 1 2 3 4 5 6 7 8 9 10 11 12 13 14

000
FTUS43 KMPX 011200 AAA
TAFSTC
TAF AMD
KSTC 011258Z 0113/0212 VRB02KT 6SM HZ SKC
     FM011500 32005KT P6SM VCSH BKN050
     FM012100 34006KT P6SM SCT050 BKN070
     FM020200 VRB02KT P6SM FEW250
     FM021000 00000KT 3SM BR SKC=

USA.gov is the U.S. government's official web portal to all federal, state and local government web resources and services.